Powder Springs, Tennessee
Current Conditions -  °F | °C
As of 2:55 PM on Friday 24 Oct 2014 (Local Time) from KMOR Reporting Station
Clear Clear  
Wind Chill: 63°   Ceiling: Unl
Heat Index: 63°   Visibility: 10mi
Dew Point: 45°   Wind: 5mph
Humidity: 52%   Direction: 20°NNE
Pressure: 30.07"   Gusts: NA
Location:  36.25°N, 83.67°W
Report Text: KMOR 241855Z AUTO 02004KT 10SM CLR 17/07 A3007 RMK
Loading
Personal Weather Stations






























Interactive Weather Map
Tropical Storm Tracking
New forecast layout! Learn more

10-Day Weather Forecast

Advertisements
Track Severe Weather on mobile